X  Fechar Dados meteorológicos de METAR da aviação     KDNN Dalton Municipal Airport
Temperatura
52°F Temperatura
32°F Ponto de orvalho
47% Umidade



Vento
3 MPH
5 KM/H
1 M/S
3 NÓS



Calmo
N
Condições atuais

Encoberto Encoberto
Pressão 1025.42 (hPa) - 30.28 (inHg)
Visibilidade 10 (milha) - 16.1 (km)
Aeroporto
Código do aeroporto KDNN

Localização: Dalton Municipal Airport
Distância: 34 (mi)

Metar:
KDNN 051715Z AUTO VRB03KT 10SM OVC043 11/M00 A3028 RMK AO2 P0001 T01061003

Hora: 02-05-2023 12:15 EST